sensor_id;sensor_type;location;lat;lon;timestamp;pressure;altitude;pressure_sealevel;temperature
81399;BMP280;70853;50.074;10.224;2023-09-19T00:01:23;98091.81;;;16.40
81399;BMP280;70853;50.074;10.224;2023-09-19T00:03:50;98088.88;;;16.36
81399;BMP280;70853;50.074;10.224;2023-09-19T00:06:16;98085.81;;;16.29
81399;BMP280;70853;50.074;10.224;2023-09-19T00:08:42;98075.63;;;16.28
81399;BMP280;70853;50.074;10.224;2023-09-19T00:11:11;98098.56;;;16.29
81399;BMP280;70853;50.074;10.224;2023-09-19T00:13:36;98096.16;;;16.33
81399;BMP280;70853;50.074;10.224;2023-09-19T00:16:11;98099.00;;;16.25
81399;BMP280;70853;50.074;10.224;2023-09-19T00:18:47;98095.03;;;16.26
81399;BMP280;70853;50.074;10.224;2023-09-19T00:21:14;98103.28;;;15.88
81399;BMP280;70853;50.074;10.224;2023-09-19T00:23:40;98095.97;;;16.10
81399;BMP280;70853;50.074;10.224;2023-09-19T00:26:07;98093.22;;;16.19
81399;BMP280;70853;50.074;10.224;2023-09-19T00:28:36;98103.78;;;16.06
81399;BMP280;70853;50.074;10.224;2023-09-19T00:31:08;98104.25;;;15.93
81399;BMP280;70853;50.074;10.224;2023-09-19T00:33:52;98101.09;;;16.06
81399;BMP280;70853;50.074;10.224;2023-09-19T00:36:18;98099.19;;;16.18
81399;BMP280;70853;50.074;10.224;2023-09-19T00:38:44;98094.50;;;16.18
81399;BMP280;70853;50.074;10.224;2023-09-19T00:41:11;98103.00;;;16.15
81399;BMP280;70853;50.074;10.224;2023-09-19T00:43:38;98107.63;;;16.03
81399;BMP280;70853;50.074;10.224;2023-09-19T00:46:06;98110.75;;;15.99
81399;BMP280;70853;50.074;10.224;2023-09-19T00:48:40;98114.81;;;16.10
81399;BMP280;70853;50.074;10.224;2023-09-19T00:51:10;98119.22;;;16.05
81399;BMP280;70853;50.074;10.224;2023-09-19T00:53:37;98125.59;;;16.10
81399;BMP280;70853;50.074;10.224;2023-09-19T00:56:05;98111.88;;;16.06
81399;BMP280;70853;50.074;10.224;2023-09-19T00:58:32;98127.03;;;16.01
81399;BMP280;70853;50.074;10.224;2023-09-19T01:01:01;98131.69;;;16.10
81399;BMP280;70853;50.074;10.224;2023-09-19T01:03:29;98137.50;;;16.07
81399;BMP280;70853;50.074;10.224;2023-09-19T01:05:55;98127.66;;;16.21
81399;BMP280;70853;50.074;10.224;2023-09-19T01:08:21;98128.59;;;16.25
81399;BMP280;70853;50.074;10.224;2023-09-19T01:10:52;98127.06;;;16.22
81399;BMP280;70853;50.074;10.224;2023-09-19T01:16:07;98133.38;;;16.37
81399;BMP280;70853;50.074;10.224;2023-09-19T01:18:55;98141.31;;;16.34
81399;BMP280;70853;50.074;10.224;2023-09-19T01:21:35;98138.50;;;16.32
81399;BMP280;70853;50.074;10.224;2023-09-19T01:29:47;98143.25;;;16.44
81399;BMP280;70853;50.074;10.224;2023-09-19T01:32:18;98141.63;;;16.50
81399;BMP280;70853;50.074;10.224;2023-09-19T01:34:52;98147.88;;;16.53
81399;BMP280;70853;50.074;10.224;2023-09-19T01:37:21;98152.56;;;16.52
81399;BMP280;70853;50.074;10.224;2023-09-19T01:40:06;98153.72;;;16.49
81399;BMP280;70853;50.074;10.224;2023-09-19T01:43:27;98148.31;;;16.49
81399;BMP280;70853;50.074;10.224;2023-09-19T01:46:03;98148.31;;;16.49
81399;BMP280;70853;50.074;10.224;2023-09-19T01:48:40;98149.69;;;16.29
81399;BMP280;70853;50.074;10.224;2023-09-19T01:51:16;98149.28;;;16.32
81399;BMP280;70853;50.074;10.224;2023-09-19T01:54:09;98147.22;;;16.43
81399;BMP280;70853;50.074;10.224;2023-09-19T01:56:52;98153.72;;;16.40
81399;BMP280;70853;50.074;10.224;2023-09-19T01:59:26;98149.84;;;16.31
81399;BMP280;70853;50.074;10.224;2023-09-19T02:01:57;98150.41;;;16.29
81399;BMP280;70853;50.074;10.224;2023-09-19T02:04:23;98151.38;;;16.34
81399;BMP280;70853;50.074;10.224;2023-09-19T02:06:49;98160.03;;;16.32
81399;BMP280;70853;50.074;10.224;2023-09-19T02:09:15;98174.06;;;16.31
81399;BMP280;70853;50.074;10.224;2023-09-19T02:11:41;98167.78;;;16.38
81399;BMP280;70853;50.074;10.224;2023-09-19T02:14:07;98156.63;;;16.32
81399;BMP280;70853;50.074;10.224;2023-09-19T02:16:34;98164.72;;;16.32
81399;BMP280;70853;50.074;10.224;2023-09-19T02:19:00;98170.47;;;16.38
81399;BMP280;70853;50.074;10.224;2023-09-19T02:21:30;98158.78;;;16.24
81399;BMP280;70853;50.074;10.224;2023-09-19T02:23:57;98160.16;;;16.34
81399;BMP280;70853;50.074;10.224;2023-09-19T02:26:24;98165.22;;;16.40
81399;BMP280;70853;50.074;10.224;2023-09-19T02:28:50;98163.03;;;16.27
81399;BMP280;70853;50.074;10.224;2023-09-19T02:31:16;98169.19;;;16.39
81399;BMP280;70853;50.074;10.224;2023-09-19T02:33:42;98178.63;;;16.50
81399;BMP280;70853;50.074;10.224;2023-09-19T02:36:08;98176.69;;;16.41
81399;BMP280;70853;50.074;10.224;2023-09-19T02:38:34;98176.56;;;16.39
81399;BMP280;70853;50.074;10.224;2023-09-19T02:41:00;98168.50;;;16.39
81399;BMP280;70853;50.074;10.224;2023-09-19T02:43:27;98181.94;;;16.39
81399;BMP280;70853;50.074;10.224;2023-09-19T02:45:53;98167.09;;;16.38
81399;BMP280;70853;50.074;10.224;2023-09-19T02:48:22;98186.03;;;16.49
81399;BMP280;70853;50.074;10.224;2023-09-19T02:50:51;98187.28;;;16.48
81399;BMP280;70853;50.074;10.224;2023-09-19T02:53:18;98181.84;;;16.37
81399;BMP280;70853;50.074;10.224;2023-09-19T02:55:44;98178.66;;;16.40
81399;BMP280;70853;50.074;10.224;2023-09-19T02:58:15;98184.91;;;16.43
81399;BMP280;70853;50.074;10.224;2023-09-19T03:00:41;98183.25;;;16.38
81399;BMP280;70853;50.074;10.224;2023-09-19T03:03:08;98180.66;;;16.40
81399;BMP280;70853;50.074;10.224;2023-09-19T03:05:34;98187.72;;;16.45
81399;BMP280;70853;50.074;10.224;2023-09-19T03:08:01;98191.97;;;16.48
81399;BMP280;70853;50.074;10.224;2023-09-19T03:10:27;98194.25;;;16.42
81399;BMP280;70853;50.074;10.224;2023-09-19T03:12:56;98196.25;;;16.41
81399;BMP280;70853;50.074;10.224;2023-09-19T03:15:23;98200.34;;;16.42
81399;BMP280;70853;50.074;10.224;2023-09-19T03:17:50;98195.41;;;16.39
81399;BMP280;70853;50.074;10.224;2023-09-19T03:20:21;98187.22;;;16.37
81399;BMP280;70853;50.074;10.224;2023-09-19T03:22:49;98192.09;;;16.28
81399;BMP280;70853;50.074;10.224;2023-09-19T03:25:16;98198.56;;;16.35
81399;BMP280;70853;50.074;10.224;2023-09-19T03:27:46;98196.56;;;16.36
81399;BMP280;70853;50.074;10.224;2023-09-19T03:30:14;98206.06;;;16.37
81399;BMP280;70853;50.074;10.224;2023-09-19T03:32:44;98196.81;;;16.40
81399;BMP280;70853;50.074;10.224;2023-09-19T03:35:12;98192.09;;;16.28
81399;BMP280;70853;50.074;10.224;2023-09-19T03:37:41;98203.38;;;16.37
81399;BMP280;70853;50.074;10.224;2023-09-19T03:40:08;98202.97;;;16.30
81399;BMP280;70853;50.074;10.224;2023-09-19T03:42:40;98206.94;;;16.29
81399;BMP280;70853;50.074;10.224;2023-09-19T03:45:09;98208.78;;;16.27
81399;BMP280;70853;50.074;10.224;2023-09-19T03:47:42;98205.81;;;16.32
81399;BMP280;70853;50.074;10.224;2023-09-19T03:50:09;98213.09;;;16.42
81399;BMP280;70853;50.074;10.224;2023-09-19T03:52:41;98200.41;;;16.32
81399;BMP280;70853;50.074;10.224;2023-09-19T03:55:07;98205.09;;;16.32
81399;BMP280;70853;50.074;10.224;2023-09-19T03:57:35;98208.22;;;16.28
81399;BMP280;70853;50.074;10.224;2023-09-19T04:00:02;98207.94;;;16.24
81399;BMP280;70853;50.074;10.224;2023-09-19T04:02:38;98190.38;;;16.23
81399;BMP280;70853;50.074;10.224;2023-09-19T04:05:05;98209.41;;;16.47
81399;BMP280;70853;50.074;10.224;2023-09-19T04:07:31;98209.25;;;16.45
81399;BMP280;70853;50.074;10.224;2023-09-19T04:09:56;98204.94;;;16.30
81399;BMP280;70853;50.074;10.224;2023-09-19T04:12:22;98216.88;;;16.27
81399;BMP280;70853;50.074;10.224;2023-09-19T04:14:48;98215.91;;;16.22
81399;BMP280;70853;50.074;10.224;2023-09-19T04:17:14;98217.31;;;16.14
81399;BMP280;70853;50.074;10.224;2023-09-19T04:19:40;98209.81;;;16.22
81399;BMP280;70853;50.074;10.224;2023-09-19T04:22:06;98207.69;;;16.20
81399;BMP280;70853;50.074;10.224;2023-09-19T04:24:32;98220.41;;;16.20
81399;BMP280;70853;50.074;10.224;2023-09-19T04:26:58;98221.78;;;16.00
81399;BMP280;70853;50.074;10.224;2023-09-19T04:29:24;98222.75;;;16.04
81399;BMP280;70853;50.074;10.224;2023-09-19T04:31:52;98221.78;;;16.00
81399;BMP280;70853;50.074;10.224;2023-09-19T04:34:17;98222.47;;;16.00
81399;BMP280;70853;50.074;10.224;2023-09-19T04:36:43;98237.91;;;16.00
81399;BMP280;70853;50.074;10.224;2023-09-19T04:39:09;98246.84;;;15.93
81399;BMP280;70853;50.074;10.224;2023-09-19T04:41:37;98244.91;;;15.74
81399;BMP280;70853;50.074;10.224;2023-09-19T04:44:06;98247.16;;;15.77
81399;BMP280;70853;50.074;10.224;2023-09-19T04:46:35;98256.94;;;15.82
81399;BMP280;70853;50.074;10.224;2023-09-19T04:49:01;98244.47;;;15.77
81399;BMP280;70853;50.074;10.224;2023-09-19T04:51:27;98245.19;;;15.68
81399;BMP280;70853;50.074;10.224;2023-09-19T04:53:58;98263.00;;;15.83
81399;BMP280;70853;50.074;10.224;2023-09-19T04:56:24;98259.44;;;15.90
81399;BMP280;70853;50.074;10.224;2023-09-19T04:58:49;98234.72;;;15.63
81399;BMP280;70853;50.074;10.224;2023-09-19T05:01:15;98265.25;;;15.86
81399;BMP280;70853;50.074;10.224;2023-09-19T05:03:41;98262.16;;;15.80
81399;BMP280;70853;50.074;10.224;2023-09-19T05:06:07;98270.06;;;15.88
81399;BMP280;70853;50.074;10.224;2023-09-19T05:08:33;98262.69;;;15.88
81399;BMP280;70853;50.074;10.224;2023-09-19T05:11:01;98273.78;;;15.83
81399;BMP280;70853;50.074;10.224;2023-09-19T05:13:27;98268.84;;;15.79
81399;BMP280;70853;50.074;10.224;2023-09-19T05:15:52;98279.69;;;15.91
81399;BMP280;70853;50.074;10.224;2023-09-19T05:18:18;98274.03;;;15.87
81399;BMP280;70853;50.074;10.224;2023-09-19T05:20:44;98288.31;;;15.99
81399;BMP280;70853;50.074;10.224;2023-09-19T05:23:09;98297.69;;;15.88
81399;BMP280;70853;50.074;10.224;2023-09-19T05:25:38;98289.88;;;16.02
81399;BMP280;70853;50.074;10.224;2023-09-19T05:28:09;98286.34;;;16.09
81399;BMP280;70853;50.074;10.224;2023-09-19T05:30:37;98292.38;;;16.19
81399;BMP280;70853;50.074;10.224;2023-09-19T05:33:06;98294.66;;;16.13
81399;BMP280;70853;50.074;10.224;2023-09-19T05:35:33;98294.97;;;16.08
81399;BMP280;70853;50.074;10.224;2023-09-19T05:37:59;98304.84;;;16.15
81399;BMP280;70853;50.074;10.224;2023-09-19T05:40:25;98308.50;;;16.29
81399;BMP280;70853;50.074;10.224;2023-09-19T05:42:51;98300.88;;;16.25
81399;BMP280;70853;50.074;10.224;2023-09-19T05:45:17;98315.47;;;16.32
81399;BMP280;70853;50.074;10.224;2023-09-19T05:47:50;98320.59;;;16.09
81399;BMP280;70853;50.074;10.224;2023-09-19T05:50:16;98315.06;;;16.16
81399;BMP280;70853;50.074;10.224;2023-09-19T05:52:51;98319.00;;;16.25
81399;BMP280;70853;50.074;10.224;2023-09-19T05:55:17;98326.03;;;16.40
81399;BMP280;70853;50.074;10.224;2023-09-19T05:57:49;98314.91;;;16.24
81399;BMP280;70853;50.074;10.224;2023-09-19T06:00:16;98310.38;;;16.26
81399;BMP280;70853;50.074;10.224;2023-09-19T06:02:43;98330.72;;;16.39
81399;BMP280;70853;50.074;10.224;2023-09-19T06:05:10;98325.63;;;16.43
81399;BMP280;70853;50.074;10.224;2023-09-19T06:07:36;98330.72;;;16.39
81399;BMP280;70853;50.074;10.224;2023-09-19T06:10:03;98328.16;;;16.51
81399;BMP280;70853;50.074;10.224;2023-09-19T06:12:31;98335.41;;;16.48
81399;BMP280;70853;50.074;10.224;2023-09-19T06:14:59;98330.84;;;16.51
81399;BMP280;70853;50.074;10.224;2023-09-19T06:17:25;98344.81;;;16.68
81399;BMP280;70853;50.074;10.224;2023-09-19T06:19:53;98338.28;;;16.71
81399;BMP280;70853;50.074;10.224;2023-09-19T06:22:18;98340.84;;;16.69
81399;BMP280;70853;50.074;10.224;2023-09-19T06:24:44;98348.91;;;16.79
81399;BMP280;70853;50.074;10.224;2023-09-19T06:27:13;98346.66;;;16.66
81399;BMP280;70853;50.074;10.224;2023-09-19T06:29:38;98354.03;;;16.75
81399;BMP280;70853;50.074;10.224;2023-09-19T06:32:10;98337.84;;;16.75
81399;BMP280;70853;50.074;10.224;2023-09-19T06:34:36;98335.97;;;16.87
81399;BMP280;70853;50.074;10.224;2023-09-19T06:37:04;98330.84;;;16.91
81399;BMP280;70853;50.074;10.224;2023-09-19T06:39:31;98336.81;;;16.90
81399;BMP280;70853;50.074;10.224;2023-09-19T06:41:57;98346.56;;;16.95
81399;BMP280;70853;50.074;10.224;2023-09-19T06:44:23;98348.00;;;16.86
81399;BMP280;70853;50.074;10.224;2023-09-19T06:46:50;98358.03;;;16.95
81399;BMP280;70853;50.074;10.224;2023-09-19T06:49:17;98350.34;;;17.01
81399;BMP280;70853;50.074;10.224;2023-09-19T06:51:43;98368.72;;;16.84
81399;BMP280;70853;50.074;10.224;2023-09-19T06:54:10;98351.34;;;16.96
81399;BMP280;70853;50.074;10.224;2023-09-19T06:56:35;98360.03;;;16.95
81399;BMP280;70853;50.074;10.224;2023-09-19T06:59:01;98361.72;;;17.00
81399;BMP280;70853;50.074;10.224;2023-09-19T07:01:28;98365.22;;;17.02
81399;BMP280;70853;50.074;10.224;2023-09-19T07:03:54;98379.94;;;16.90
81399;BMP280;70853;50.074;10.224;2023-09-19T07:06:20;98383.63;;;16.85
81399;BMP280;70853;50.074;10.224;2023-09-19T07:08:45;98370.44;;;16.79
81399;BMP280;70853;50.074;10.224;2023-09-19T07:11:11;98388.91;;;16.73
81399;BMP280;70853;50.074;10.224;2023-09-19T07:13:38;98384.47;;;16.87
81399;BMP280;70853;50.074;10.224;2023-09-19T07:16:04;98392.78;;;17.01
81399;BMP280;70853;50.074;10.224;2023-09-19T07:18:30;98399.66;;;17.13
81399;BMP280;70853;50.074;10.224;2023-09-19T07:20:59;98404.38;;;17.03
81399;BMP280;70853;50.074;10.224;2023-09-19T07:23:31;98412.78;;;16.98
81399;BMP280;70853;50.074;10.224;2023-09-19T07:26:00;98405.50;;;17.10
81399;BMP280;70853;50.074;10.224;2023-09-19T07:28:26;98419.97;;;17.14
81399;BMP280;70853;50.074;10.224;2023-09-19T07:30:53;98410.75;;;17.08
81399;BMP280;70853;50.074;10.224;2023-09-19T07:33:19;98424.44;;;17.21
81399;BMP280;70853;50.074;10.224;2023-09-19T07:35:46;98430.38;;;17.30
81399;BMP280;70853;50.074;10.224;2023-09-19T07:38:12;98436.44;;;17.09
81399;BMP280;70853;50.074;10.224;2023-09-19T07:40:38;98432.13;;;17.46
81399;BMP280;70853;50.074;10.224;2023-09-19T07:43:03;98446.41;;;17.27
81399;BMP280;70853;50.074;10.224;2023-09-19T07:45:30;98449.47;;;17.12
81399;BMP280;70853;50.074;10.224;2023-09-19T07:47:57;98452.19;;;17.43
81399;BMP280;70853;50.074;10.224;2023-09-19T07:50:23;98449.22;;;17.39
81399;BMP280;70853;50.074;10.224;2023-09-19T07:52:49;98468.28;;;17.53
81399;BMP280;70853;50.074;10.224;2023-09-19T07:55:22;98444.28;;;17.36
81399;BMP280;70853;50.074;10.224;2023-09-19T07:57:54;98458.50;;;17.48
81399;BMP280;70853;50.074;10.224;2023-09-19T08:00:19;98446.13;;;17.33
81399;BMP280;70853;50.074;10.224;2023-09-19T08:02:45;98445.97;;;17.31
81399;BMP280;70853;50.074;10.224;2023-09-19T08:05:11;98448.84;;;17.54
81399;BMP280;70853;50.074;10.224;2023-09-19T08:07:42;98451.22;;;17.60
81399;BMP280;70853;50.074;10.224;2023-09-19T08:10:09;98454.94;;;17.55
81399;BMP280;70853;50.074;10.224;2023-09-19T08:12:43;98460.13;;;17.41
81399;BMP280;70853;50.074;10.224;2023-09-19T08:15:19;98472.91;;;17.41
81399;BMP280;70853;50.074;10.224;2023-09-19T08:17:48;98474.09;;;17.59
81399;BMP280;70853;50.074;10.224;2023-09-19T08:20:14;98451.28;;;17.50
81399;BMP280;70853;50.074;10.224;2023-09-19T08:22:49;98463.00;;;17.64
81399;BMP280;70853;50.074;10.224;2023-09-19T08:25:15;98462.47;;;17.25
81399;BMP280;70853;50.074;10.224;2023-09-19T08:27:48;98485.63;;;17.50
81399;BMP280;70853;50.074;10.224;2023-09-19T08:30:16;98483.50;;;17.48
81399;BMP280;70853;50.074;10.224;2023-09-19T08:32:42;98484.22;;;17.49
81399;BMP280;70853;50.074;10.224;2023-09-19T08:35:11;98488.09;;;17.67
81399;BMP280;70853;50.074;10.224;2023-09-19T08:37:37;98488.88;;;17.79
81399;BMP280;70853;50.074;10.224;2023-09-19T08:40:03;98485.81;;;17.73
81399;BMP280;70853;50.074;10.224;2023-09-19T08:42:28;98494.59;;;17.95
81399;BMP280;70853;50.074;10.224;2023-09-19T08:44:55;98511.97;;;17.61
81399;BMP280;70853;50.074;10.224;2023-09-19T08:47:38;98500.34;;;17.58
81399;BMP280;70853;50.074;10.224;2023-09-19T08:50:23;98502.03;;;17.63
81399;BMP280;70853;50.074;10.224;2023-09-19T08:52:55;98504.84;;;17.65
81399;BMP280;70853;50.074;10.224;2023-09-19T08:55:26;98494.28;;;17.79
81399;BMP280;70853;50.074;10.224;2023-09-19T08:58:09;98492.75;;;17.97
81399;BMP280;70853;50.074;10.224;2023-09-19T09:00:36;98496.91;;;17.67
81399;BMP280;70853;50.074;10.224;2023-09-19T09:03:02;98516.25;;;17.85
81399;BMP280;70853;50.074;10.224;2023-09-19T09:05:29;98515.78;;;17.98
81399;BMP280;70853;50.074;10.224;2023-09-19T09:07:56;98505.25;;;17.71
81399;BMP280;70853;50.074;10.224;2023-09-19T09:10:22;98509.91;;;17.50
81399;BMP280;70853;50.074;10.224;2023-09-19T09:12:51;98521.09;;;17.56
81399;BMP280;70853;50.074;10.224;2023-09-19T09:15:18;98509.19;;;17.49
81399;BMP280;70853;50.074;10.224;2023-09-19T09:17:47;98515.53;;;17.63
81399;BMP280;70853;50.074;10.224;2023-09-19T09:20:13;98513.22;;;17.39
81399;BMP280;70853;50.074;10.224;2023-09-19T09:22:52;98509.41;;;17.63
81399;BMP280;70853;50.074;10.224;2023-09-19T09:25:47;98531.59;;;17.52
81399;BMP280;70853;50.074;10.224;2023-09-19T09:28:19;98504.31;;;17.26
81399;BMP280;70853;50.074;10.224;2023-09-19T09:30:45;98507.78;;;17.48
81399;BMP280;70853;50.074;10.224;2023-09-19T09:33:13;98505.56;;;17.66
81399;BMP280;70853;50.074;10.224;2023-09-19T09:35:57;98513.69;;;17.56
81399;BMP280;70853;50.074;10.224;2023-09-19T09:38:45;98509.06;;;17.99
81399;BMP280;70853;50.074;10.224;2023-09-19T09:41:11;98511.66;;;17.66
81399;BMP280;70853;50.074;10.224;2023-09-19T09:43:41;98521.63;;;17.85
81399;BMP280;70853;50.074;10.224;2023-09-19T09:46:17;98501.66;;;17.79
81399;BMP280;70853;50.074;10.224;2023-09-19T09:49:06;98517.25;;;17.80
81399;BMP280;70853;50.074;10.224;2023-09-19T09:51:51;98527.59;;;17.62
81399;BMP280;70853;50.074;10.224;2023-09-19T09:54:26;98515.47;;;17.94
81399;BMP280;70853;50.074;10.224;2023-09-19T09:57:12;98511.22;;;17.70
81399;BMP280;70853;50.074;10.224;2023-09-19T09:59:46;98517.84;;;17.79
81399;BMP280;70853;50.074;10.224;2023-09-19T10:02:14;98513.50;;;17.95
81399;BMP280;70853;50.074;10.224;2023-09-19T10:04:42;98512.34;;;17.98
81399;BMP280;70853;50.074;10.224;2023-09-19T10:07:27;98512.78;;;17.94
81399;BMP280;70853;50.074;10.224;2023-09-19T10:09:58;98507.38;;;18.37
81399;BMP280;70853;50.074;10.224;2023-09-19T10:12:45;98518.59;;;18.33
81399;BMP280;70853;50.074;10.224;2023-09-19T10:15:11;98527.13;;;18.18
81399;BMP280;70853;50.074;10.224;2023-09-19T10:17:44;98521.25;;;18.43
81399;BMP280;70853;50.074;10.224;2023-09-19T10:20:16;98509.69;;;18.63
81399;BMP280;70853;50.074;10.224;2023-09-19T10:23:09;98519.88;;;18.53
81399;BMP280;70853;50.074;10.224;2023-09-19T10:25:38;98520.91;;;18.48
81399;BMP280;70853;50.074;10.224;2023-09-19T10:28:06;98519.41;;;18.24
81399;BMP280;70853;50.074;10.224;2023-09-19T10:30:37;98507.91;;;18.24
81399;BMP280;70853;50.074;10.224;2023-09-19T10:33:08;98503.41;;;18.16
81399;BMP280;70853;50.074;10.224;2023-09-19T10:35:34;98515.28;;;18.23
81399;BMP280;70853;50.074;10.224;2023-09-19T10:38:03;98493.47;;;18.31
81399;BMP280;70853;50.074;10.224;2023-09-19T10:40:29;98506.53;;;18.67
81399;BMP280;70853;50.074;10.224;2023-09-19T10:43:01;98507.19;;;19.00
81399;BMP280;70853;50.074;10.224;2023-09-19T10:45:32;98499.38;;;18.72
81399;BMP280;70853;50.074;10.224;2023-09-19T10:47:58;98509.28;;;19.02
81399;BMP280;70853;50.074;10.224;2023-09-19T10:50:24;98507.25;;;18.79
81399;BMP280;70853;50.074;10.224;2023-09-19T10:52:53;98509.97;;;18.46
81399;BMP280;70853;50.074;10.224;2023-09-19T10:55:25;98520.09;;;18.57
81399;BMP280;70853;50.074;10.224;2023-09-19T10:57:53;98517.44;;;18.69
81399;BMP280;70853;50.074;10.224;2023-09-19T11:00:19;98512.53;;;18.89
81399;BMP280;70853;50.074;10.224;2023-09-19T11:03:16;98515.81;;;18.76
81399;BMP280;70853;50.074;10.224;2023-09-19T11:06:00;98512.59;;;19.00
81399;BMP280;70853;50.074;10.224;2023-09-19T11:08:53;98516.09;;;18.91
81399;BMP280;70853;50.074;10.224;2023-09-19T11:30:51;98511.53;;;19.29
81399;BMP280;70853;50.074;10.224;2023-09-19T11:33:28;98514.94;;;19.18
81399;BMP280;70853;50.074;10.224;2023-09-19T11:36:10;98500.00;;;19.17
81399;BMP280;70853;50.074;10.224;2023-09-19T11:46:24;98502.94;;;19.44
81399;BMP280;70853;50.074;10.224;2023-09-19T11:48:51;98478.84;;;19.25
81399;BMP280;70853;50.074;10.224;2023-09-19T11:51:21;98502.94;;;19.44
81399;BMP280;70853;50.074;10.224;2023-09-19T11:53:50;98517.63;;;19.06
81399;BMP280;70853;50.074;10.224;2023-09-19T11:56:17;98487.31;;;19.07
81399;BMP280;70853;50.074;10.224;2023-09-19T11:58:44;98496.59;;;19.39
81399;BMP280;70853;50.074;10.224;2023-09-19T12:01:14;98492.34;;;19.48
81399;BMP280;70853;50.074;10.224;2023-09-19T12:03:46;98498.22;;;19.56
81399;BMP280;70853;50.074;10.224;2023-09-19T12:06:15;98471.28;;;19.58
81399;BMP280;70853;50.074;10.224;2023-09-19T12:08:44;98482.13;;;19.35
81399;BMP280;70853;50.074;10.224;2023-09-19T12:11:16;98492.06;;;19.67
81399;BMP280;70853;50.074;10.224;2023-09-19T12:13:45;98475.09;;;19.78
81399;BMP280;70853;50.074;10.224;2023-09-19T12:16:16;98485.03;;;19.62
81399;BMP280;70853;50.074;10.224;2023-09-19T12:18:45;98490.63;;;19.78
81399;BMP280;70853;50.074;10.224;2023-09-19T12:21:29;98485.75;;;19.63
81399;BMP280;70853;50.074;10.224;2023-09-19T12:24:07;98492.81;;;19.56
81399;BMP280;70853;50.074;10.224;2023-09-19T12:26:43;98486.91;;;19.71
81399;BMP280;70853;50.074;10.224;2023-09-19T12:29:27;98493.28;;;19.64
81399;BMP280;70853;50.074;10.224;2023-09-19T12:31:54;98483.34;;;19.80
81399;BMP280;70853;50.074;10.224;2023-09-19T12:34:26;98475.78;;;19.90
81399;BMP280;70853;50.074;10.224;2023-09-19T12:37:21;98481.41;;;19.94
81399;BMP280;70853;50.074;10.224;2023-09-19T12:39:52;98490.84;;;19.93
81399;BMP280;70853;50.074;10.224;2023-09-19T12:42:26;98485.91;;;19.90
81399;BMP280;70853;50.074;10.224;2023-09-19T12:44:58;98482.97;;;19.86
81399;BMP280;70853;50.074;10.224;2023-09-19T12:47:27;98479.19;;;19.54
81399;BMP280;70853;50.074;10.224;2023-09-19T12:50:13;98480.34;;;19.39
81399;BMP280;70853;50.074;10.224;2023-09-19T12:55:30;98489.00;;;19.73
81399;BMP280;70853;50.074;10.224;2023-09-19T13:00:39;98482.94;;;19.60
81399;BMP280;70853;50.074;10.224;2023-09-19T13:05:53;98477.50;;;19.60
81399;BMP280;70853;50.074;10.224;2023-09-19T13:08:27;98483.09;;;19.88
81399;BMP280;70853;50.074;10.224;2023-09-19T13:11:02;98479.03;;;20.00
81399;BMP280;70853;50.074;10.224;2023-09-19T13:13:27;98492.69;;;20.02
81399;BMP280;70853;50.074;10.224;2023-09-19T13:15:55;98474.06;;;20.08
81399;BMP280;70853;50.074;10.224;2023-09-19T13:18:23;98461.38;;;20.25
81399;BMP280;70853;50.074;10.224;2023-09-19T13:21:09;98463.72;;;20.05
81399;BMP280;70853;50.074;10.224;2023-09-19T13:23:38;98467.41;;;20.23
81399;BMP280;70853;50.074;10.224;2023-09-19T13:26:03;98459.94;;;20.24
81399;BMP280;70853;50.074;10.224;2023-09-19T13:28:33;98473.91;;;20.43
81399;BMP280;70853;50.074;10.224;2023-09-19T13:30:59;98452.28;;;20.32
81399;BMP280;70853;50.074;10.224;2023-09-19T13:33:24;98444.00;;;19.91
81399;BMP280;70853;50.074;10.224;2023-09-19T13:35:51;98456.44;;;20.21
81399;BMP280;70853;50.074;10.224;2023-09-19T13:38:18;98461.53;;;20.40
81399;BMP280;70853;50.074;10.224;2023-09-19T13:40:47;98459.25;;;20.48
81399;BMP280;70853;50.074;10.224;2023-09-19T13:43:13;98455.81;;;20.73
81399;BMP280;70853;50.074;10.224;2023-09-19T13:45:39;98455.50;;;20.94
81399;BMP280;70853;50.074;10.224;2023-09-19T13:48:08;98457.69;;;20.84
81399;BMP280;70853;50.074;10.224;2023-09-19T13:50:37;98459.22;;;21.01
81399;BMP280;70853;50.074;10.224;2023-09-19T13:53:08;98460.69;;;20.77
81399;BMP280;70853;50.074;10.224;2023-09-19T13:55:33;98435.03;;;21.19
81399;BMP280;70853;50.074;10.224;2023-09-19T13:57:59;98446.03;;;20.68
81399;BMP280;70853;50.074;10.224;2023-09-19T14:00:25;98457.50;;;21.07
81399;BMP280;70853;50.074;10.224;2023-09-19T14:02:51;98443.03;;;21.03
81399;BMP280;70853;50.074;10.224;2023-09-19T14:05:17;98445.50;;;21.53
81399;BMP280;70853;50.074;10.224;2023-09-19T14:07:44;98446.34;;;21.29
81399;BMP280;70853;50.074;10.224;2023-09-19T14:10:11;98445.09;;;21.88
81399;BMP280;70853;50.074;10.224;2023-09-19T14:12:37;98438.25;;;22.32
81399;BMP280;70853;50.074;10.224;2023-09-19T14:15:10;98428.09;;;22.33
81399;BMP280;70853;50.074;10.224;2023-09-19T14:17:36;98451.50;;;21.95
81399;BMP280;70853;50.074;10.224;2023-09-19T14:20:01;98443.69;;;21.58
81399;BMP280;70853;50.074;10.224;2023-09-19T14:22:27;98432.19;;;21.73
81399;BMP280;70853;50.074;10.224;2023-09-19T14:24:52;98431.81;;;22.26
81399;BMP280;70853;50.074;10.224;2023-09-19T14:27:18;98433.47;;;22.80
81399;BMP280;70853;50.074;10.224;2023-09-19T14:29:44;98434.00;;;22.13
81399;BMP280;70853;50.074;10.224;2023-09-19T14:32:09;98441.09;;;21.46
81399;BMP280;70853;50.074;10.224;2023-09-19T14:34:35;98447.88;;;21.61
81399;BMP280;70853;50.074;10.224;2023-09-19T14:37:07;98432.66;;;21.99
81399;BMP280;70853;50.074;10.224;2023-09-19T14:39:33;98419.75;;;22.44
81399;BMP280;70853;50.074;10.224;2023-09-19T14:41:58;98428.91;;;21.90
81399;BMP280;70853;50.074;10.224;2023-09-19T14:44:27;98427.41;;;22.03
81399;BMP280;70853;50.074;10.224;2023-09-19T14:46:53;98425.41;;;22.03
81399;BMP280;70853;50.074;10.224;2023-09-19T14:49:20;98431.59;;;22.35
81399;BMP280;70853;50.074;10.224;2023-09-19T14:51:45;98432.63;;;22.44
81399;BMP280;70853;50.074;10.224;2023-09-19T14:54:12;98418.84;;;22.08